createdAt,value
2023-04-13T00:00:19.040Z,20.80
2023-04-13T00:03:13.668Z,20.60
2023-04-13T00:05:49.091Z,20.40
2023-04-13T00:08:23.684Z,20.70
2023-04-13T00:10:57.710Z,18.60
2023-04-13T00:13:31.157Z,18.90
2023-04-13T00:16:06.317Z,20.80
2023-04-13T00:18:40.439Z,20.60
2023-04-13T00:21:17.408Z,21.40
2023-04-13T00:23:51.157Z,21.70
2023-04-13T00:26:25.940Z,22.00
2023-04-13T00:29:00.964Z,20.60
2023-04-13T00:31:34.934Z,20.20
2023-04-13T00:34:08.618Z,19.30
2023-04-13T00:36:42.332Z,20.00
2023-04-13T00:39:16.158Z,19.70
2023-04-13T00:41:49.868Z,20.20
2023-04-13T00:44:23.703Z,20.60
2023-04-13T00:46:57.378Z,20.60
2023-04-13T00:49:31.124Z,19.80
2023-04-13T00:52:04.512Z,21.70
2023-04-13T00:54:37.803Z,21.00
2023-04-13T00:57:13.335Z,19.40
2023-04-13T00:59:49.532Z,18.90
2023-04-13T01:02:26.927Z,19.90
2023-04-13T01:05:01.091Z,20.90
2023-04-13T01:07:45.310Z,19.30
2023-04-13T01:10:26.085Z,20.60
2023-04-13T01:13:10.542Z,22.90
2023-04-13T01:15:55.562Z,20.10
2023-04-13T01:18:30.845Z,20.50
2023-04-13T01:21:05.911Z,21.00
2023-04-13T01:23:51.839Z,20.90
2023-04-13T01:26:26.451Z,20.60
2023-04-13T01:29:00.918Z,20.50
2023-04-13T01:31:36.116Z,21.10
2023-04-13T01:34:10.177Z,22.10
2023-04-13T01:36:44.101Z,22.20
2023-04-13T01:39:25.934Z,22.00
2023-04-13T01:42:08.606Z,19.40
2023-04-13T01:44:42.607Z,19.90
2023-04-13T01:47:20.942Z,18.40
2023-04-13T01:50:20.121Z,21.40
2023-04-13T01:53:00.365Z,21.40
2023-04-13T01:55:35.977Z,21.60
2023-04-13T01:58:13.326Z,22.20
2023-04-13T02:00:47.378Z,22.10
2023-04-13T02:03:23.051Z,23.80
2023-04-13T02:05:57.140Z,20.70
2023-04-13T02:08:33.494Z,20.10
2023-04-13T02:11:08.015Z,20.20
2023-04-13T02:13:41.813Z,22.30
2023-04-13T02:16:18.093Z,22.40
2023-04-13T02:18:51.911Z,21.50
2023-04-13T02:21:26.360Z,21.70
2023-04-13T02:24:00.723Z,21.80
2023-04-13T02:26:34.424Z,22.20
2023-04-13T02:29:09.297Z,23.20
2023-04-13T02:31:44.555Z,21.60
2023-04-13T02:34:18.149Z,21.90
2023-04-13T02:36:52.246Z,21.40
2023-04-13T02:39:25.604Z,21.50
2023-04-13T02:41:59.509Z,21.90
2023-04-13T02:44:38.946Z,21.60
2023-04-13T02:47:12.395Z,21.60
2023-04-13T02:49:46.080Z,21.40
2023-04-13T02:52:32.972Z,21.80
2023-04-13T02:55:12.349Z,20.10
2023-04-13T02:58:00.621Z,19.40
2023-04-13T03:00:35.049Z,19.90
2023-04-13T03:03:12.660Z,20.60
2023-04-13T03:05:51.013Z,21.10
2023-04-13T03:08:27.761Z,20.80
2023-04-13T03:11:28.393Z,21.90
2023-04-13T03:14:22.135Z,20.90
2023-04-13T03:17:07.227Z,20.40
2023-04-13T03:19:47.854Z,20.00
2023-04-13T03:22:22.277Z,19.70
2023-04-13T03:24:56.139Z,19.60
2023-04-13T03:27:34.196Z,20.80
2023-04-13T03:30:09.248Z,22.00
2023-04-13T03:32:52.729Z,20.30
2023-04-13T03:35:27.759Z,21.90
2023-04-13T03:38:01.674Z,21.10
2023-04-13T03:40:47.680Z,20.20
2023-04-13T03:43:21.632Z,20.30
2023-04-13T03:46:04.622Z,20.20
2023-04-13T03:48:38.714Z,19.60
2023-04-13T03:51:12.962Z,21.60
2023-04-13T03:53:54.454Z,20.10
2023-04-13T03:56:30.309Z,20.60
2023-04-13T03:59:04.354Z,21.30
2023-04-13T04:01:38.313Z,21.80
2023-04-13T04:04:12.542Z,20.90
2023-04-13T04:06:46.227Z,19.10
2023-04-13T04:09:22.715Z,19.90
2023-04-13T04:11:56.903Z,20.20
2023-04-13T04:14:41.541Z,20.10
2023-04-13T04:17:22.653Z,21.50
2023-04-13T04:19:57.149Z,24.40
2023-04-13T04:22:35.260Z,22.40
2023-04-13T04:25:10.426Z,21.50
2023-04-13T04:27:47.345Z,20.50
2023-04-13T04:30:22.516Z,20.80
2023-04-13T04:32:56.083Z,20.70
2023-04-13T04:35:34.913Z,21.60
2023-04-13T04:38:09.983Z,20.90
2023-04-13T04:40:45.368Z,22.50
2023-04-13T04:43:21.064Z,22.60
2023-04-13T04:45:58.146Z,23.70
2023-04-13T04:48:33.054Z,22.70
2023-04-13T04:51:08.812Z,21.50
2023-04-13T04:53:42.575Z,23.10
2023-04-13T04:56:17.240Z,22.30
2023-04-13T04:58:54.125Z,22.90
2023-04-13T05:01:35.382Z,22.60
2023-04-13T05:04:14.518Z,24.00
2023-04-13T05:06:49.782Z,22.60
2023-04-13T05:09:25.391Z,22.40
2023-04-13T05:12:00.210Z,22.10
2023-04-13T05:14:34.372Z,21.90
2023-04-13T05:17:08.401Z,20.90
2023-04-13T05:19:44.786Z,20.50
2023-04-13T05:22:44.749Z,18.80
2023-04-13T05:25:18.457Z,20.00
2023-04-13T05:27:53.316Z,22.10
2023-04-13T05:30:28.709Z,21.30
2023-04-13T05:33:06.539Z,21.60
2023-04-13T05:35:41.453Z,20.90
2023-04-13T05:38:15.269Z,22.80
2023-04-13T05:40:48.747Z,23.00
2023-04-13T05:43:23.933Z,22.20
2023-04-13T05:45:58.924Z,22.00
2023-04-13T05:48:34.409Z,19.90
2023-04-13T05:51:10.827Z,21.60
2023-04-13T05:53:44.753Z,20.10
2023-04-13T05:56:17.990Z,20.70
2023-04-13T05:58:51.882Z,21.30
2023-04-13T06:01:29.974Z,22.60
2023-04-13T06:04:04.868Z,22.50
2023-04-13T06:06:39.077Z,21.10
2023-04-13T06:09:13.675Z,20.80
2023-04-13T06:11:47.351Z,21.10
2023-04-13T06:14:21.361Z,21.70
2023-04-13T06:16:55.617Z,20.60
2023-04-13T06:19:29.241Z,20.90
2023-04-13T06:22:03.155Z,19.10
2023-04-13T06:24:37.777Z,17.20
2023-04-13T06:27:13.039Z,16.90
2023-04-13T06:29:47.305Z,13.70
2023-04-13T06:32:21.453Z,13.80
2023-04-13T06:34:55.751Z,11.90
2023-04-13T06:37:30.576Z,12.00
2023-04-13T06:40:13.427Z,12.40
2023-04-13T06:42:52.874Z,12.30
2023-04-13T06:45:44.839Z,12.30
2023-04-13T06:48:24.998Z,12.60
2023-04-13T06:51:01.334Z,13.80
2023-04-13T06:53:35.557Z,13.30
2023-04-13T06:56:10.223Z,13.10
2023-04-13T06:58:44.147Z,16.10
2023-04-13T07:01:17.909Z,15.30
2023-04-13T07:03:52.291Z,14.70
2023-04-13T07:06:26.717Z,12.30
2023-04-13T07:09:00.486Z,12.80
2023-04-13T07:11:35.682Z,13.90
2023-04-13T07:14:09.523Z,13.80
2023-04-13T07:16:43.177Z,14.50
2023-04-13T07:19:17.324Z,14.40
2023-04-13T07:21:50.774Z,15.10
2023-04-13T07:24:24.741Z,14.90
2023-04-13T07:26:58.747Z,14.20
2023-04-13T07:29:32.734Z,14.40
2023-04-13T07:32:10.513Z,14.50
2023-04-13T07:34:44.226Z,13.80
2023-04-13T07:37:18.327Z,13.00
2023-04-13T07:39:52.226Z,13.70
2023-04-13T07:42:28.414Z,12.80
2023-04-13T07:45:02.332Z,13.70
2023-04-13T07:47:36.844Z,14.30
2023-04-13T07:50:14.886Z,13.30
2023-04-13T07:52:49.526Z,12.40
2023-04-13T07:55:23.557Z,13.50
2023-04-13T07:58:00.184Z,13.80
2023-04-13T08:00:34.977Z,13.10
2023-04-13T08:03:09.103Z,14.10
2023-04-13T08:05:45.655Z,13.50
2023-04-13T08:08:21.962Z,13.00
2023-04-13T08:10:57.338Z,14.50
2023-04-13T08:13:31.816Z,13.70
2023-04-13T08:16:07.881Z,13.60
2023-04-13T08:18:42.737Z,13.20
2023-04-13T08:21:17.026Z,12.50
2023-04-13T08:23:52.061Z,14.10
2023-04-13T08:26:26.703Z,13.20
2023-04-13T08:29:04.354Z,12.70
2023-04-13T08:31:40.848Z,11.70
2023-04-13T08:34:15.924Z,10.30
2023-04-13T08:36:49.347Z,11.90
2023-04-13T08:39:23.252Z,12.10
2023-04-13T08:41:58.602Z,11.90
2023-04-13T08:44:40.406Z,9.30
2023-04-13T08:47:15.300Z,10.20
2023-04-13T08:49:50.607Z,10.00
2023-04-13T08:52:30.070Z,9.60
2023-04-13T08:55:06.277Z,10.70
2023-04-13T08:57:43.085Z,10.90
2023-04-13T09:00:19.774Z,11.80
2023-04-13T09:03:05.344Z,10.20
2023-04-13T09:05:43.798Z,10.90
2023-04-13T09:08:18.621Z,11.00
2023-04-13T09:10:56.390Z,11.30
2023-04-13T09:13:30.041Z,9.40
2023-04-13T09:16:04.343Z,9.90
2023-04-13T09:18:56.316Z,9.60
2023-04-13T09:21:41.038Z,8.90
2023-04-13T09:24:15.725Z,8.60
2023-04-13T09:26:50.615Z,9.90
2023-04-13T09:29:24.709Z,9.50
2023-04-13T09:31:58.333Z,9.60
2023-04-13T09:34:32.329Z,10.70
2023-04-13T09:37:18.908Z,9.80
2023-04-13T09:39:52.970Z,9.40
2023-04-13T09:42:27.424Z,9.30
2023-04-13T09:45:01.433Z,9.00
2023-04-13T09:47:41.407Z,9.70
2023-04-13T09:50:24.100Z,8.80
2023-04-13T09:53:11.428Z,8.50
2023-04-13T09:55:48.010Z,8.60
2023-04-13T09:58:22.597Z,8.60
2023-04-13T10:00:58.388Z,9.50
2023-04-13T10:03:32.628Z,8.60
2023-04-13T10:06:09.481Z,9.60
2023-04-13T10:08:43.663Z,9.40
2023-04-13T10:11:18.662Z,8.10
2023-04-13T10:13:58.024Z,8.30
2023-04-13T10:16:46.725Z,8.20
2023-04-13T10:19:23.097Z,9.00
2023-04-13T10:21:58.931Z,8.60
2023-04-13T10:24:32.989Z,7.70
2023-04-13T10:27:15.859Z,7.60
2023-04-13T10:29:50.428Z,7.70
2023-04-13T10:32:29.197Z,6.30
2023-04-13T10:35:13.615Z,7.00
2023-04-13T10:37:47.742Z,7.10
2023-04-13T10:40:21.918Z,6.20
2023-04-13T10:42:55.987Z,6.40
2023-04-13T10:45:36.594Z,6.40
2023-04-13T10:48:21.738Z,6.50
2023-04-13T10:51:02.978Z,6.30
2023-04-13T10:53:37.212Z,6.20
2023-04-13T10:56:20.816Z,6.20
2023-04-13T10:58:57.412Z,6.10
2023-04-13T11:01:32.549Z,6.70
2023-04-13T11:04:11.097Z,5.80
2023-04-13T11:06:48.159Z,6.80
2023-04-13T11:09:25.056Z,7.40
2023-04-13T11:11:59.529Z,6.70
2023-04-13T11:14:33.586Z,7.00
2023-04-13T11:17:09.307Z,7.50
2023-04-13T11:19:51.628Z,7.60
2023-04-13T11:22:28.155Z,6.10
2023-04-13T11:25:12.157Z,6.60
2023-04-13T11:27:50.307Z,5.40
2023-04-13T11:30:26.193Z,6.00
2023-04-13T11:33:01.678Z,6.10
2023-04-13T11:35:35.834Z,6.90
2023-04-13T11:38:19.472Z,6.40
2023-04-13T11:41:07.934Z,6.40
2023-04-13T11:43:49.048Z,5.30
2023-04-13T11:46:26.356Z,6.30
2023-04-13T11:49:00.524Z,6.60
2023-04-13T11:51:35.528Z,6.30
2023-04-13T11:54:10.891Z,6.10
2023-04-13T11:56:45.832Z,4.90
2023-04-13T11:59:26.894Z,5.30
2023-04-13T12:02:05.312Z,5.90
2023-04-13T12:04:46.220Z,5.50
2023-04-13T12:07:21.027Z,4.70
2023-04-13T12:09:56.901Z,5.40
2023-04-13T12:12:51.362Z,4.80
2023-04-13T12:15:43.266Z,5.40
2023-04-13T12:18:28.465Z,5.70
2023-04-13T12:21:06.208Z,5.40
2023-04-13T12:23:39.920Z,4.90
2023-04-13T12:26:48.813Z,4.90
2023-04-13T12:29:09.175Z,5.40
2023-04-13T12:31:44.668Z,5.30
2023-04-13T12:34:19.026Z,5.50
2023-04-13T12:36:52.447Z,5.00
2023-04-13T12:39:26.068Z,4.60
2023-04-13T12:41:59.487Z,4.50
2023-04-13T12:44:34.561Z,4.20
2023-04-13T12:47:08.988Z,5.10
2023-04-13T12:49:42.938Z,6.00
2023-04-13T12:52:16.400Z,5.50
2023-04-13T12:54:50.115Z,6.40
2023-04-13T12:57:24.091Z,5.70
2023-04-13T12:59:58.454Z,5.80
2023-04-13T13:02:32.730Z,5.40
2023-04-13T13:05:06.865Z,5.60
2023-04-13T13:07:40.678Z,5.40
2023-04-13T13:10:29.193Z,5.70
2023-04-13T13:13:04.632Z,6.20
2023-04-13T13:15:38.040Z,5.40
2023-04-13T13:18:11.728Z,6.40
2023-04-13T13:20:46.390Z,6.90
2023-04-13T13:23:21.144Z,6.70
2023-04-13T13:26:13.706Z,6.90
2023-04-13T13:28:48.709Z,6.80
2023-04-13T13:31:22.560Z,6.70
2023-04-13T13:33:56.461Z,6.50
2023-04-13T13:36:31.035Z,7.60
2023-04-13T13:39:05.664Z,5.60
2023-04-13T13:41:39.151Z,5.80
2023-04-13T13:44:12.852Z,5.20
2023-04-13T13:46:46.609Z,5.40
2023-04-13T13:49:20.893Z,5.30
2023-04-13T13:52:13.234Z,5.40
2023-04-13T13:54:56.222Z,5.70
2023-04-13T13:57:30.383Z,5.50
2023-04-13T14:00:13.670Z,5.10
2023-04-13T14:02:48.544Z,5.40
2023-04-13T14:05:22.958Z,5.50
2023-04-13T14:07:56.870Z,5.30
2023-04-13T14:10:31.003Z,5.20
2023-04-13T14:13:04.283Z,5.50
2023-04-13T14:15:37.941Z,5.40
2023-04-13T14:18:11.998Z,5.40
2023-04-13T14:20:45.531Z,5.30
2023-04-13T14:23:19.693Z,4.90
2023-04-13T14:25:53.529Z,5.60
2023-04-13T14:28:27.661Z,5.10
2023-04-13T14:31:01.350Z,5.20
2023-04-13T14:33:35.187Z,4.90
2023-04-13T14:36:11.336Z,4.70
2023-04-13T14:38:44.893Z,4.50
2023-04-13T14:41:18.483Z,4.00
2023-04-13T14:43:52.108Z,3.80
2023-04-13T14:46:28.042Z,3.50
2023-04-13T14:49:02.589Z,4.00
2023-04-13T14:51:37.546Z,4.10
2023-04-13T14:54:11.557Z,4.60
2023-04-13T14:56:45.179Z,4.50
2023-04-13T14:59:18.983Z,4.30
2023-04-13T15:01:52.862Z,4.60
2023-04-13T15:04:26.892Z,4.00
2023-04-13T15:07:00.663Z,3.60
2023-04-13T15:09:34.031Z,4.20
2023-04-13T15:12:13.112Z,4.10
2023-04-13T15:14:47.147Z,3.90
2023-04-13T15:17:21.486Z,3.50
2023-04-13T15:19:55.577Z,3.70
2023-04-13T15:22:31.316Z,3.80
2023-04-13T15:25:05.998Z,3.40
2023-04-13T15:27:39.717Z,3.20
2023-04-13T15:30:14.525Z,3.30
2023-04-13T15:32:48.775Z,3.30
2023-04-13T15:35:22.782Z,3.60
2023-04-13T15:37:57.349Z,3.40
2023-04-13T15:40:32.996Z,3.60
2023-04-13T15:43:07.373Z,3.40
2023-04-13T15:45:41.467Z,3.50
2023-04-13T15:48:16.091Z,3.30
2023-04-13T15:50:49.725Z,3.50
2023-04-13T15:53:24.092Z,3.40
2023-04-13T15:55:58.796Z,3.70
2023-04-13T15:58:32.307Z,3.60
2023-04-13T16:01:07.818Z,4.00
2023-04-13T16:03:42.306Z,3.40
2023-04-13T16:06:15.972Z,3.50
2023-04-13T16:08:50.695Z,3.40
2023-04-13T16:11:24.476Z,3.60
2023-04-13T16:14:07.721Z,3.30
2023-04-13T16:16:47.078Z,3.40
2023-04-13T16:19:21.560Z,3.60
2023-04-13T16:21:55.043Z,3.70
2023-04-13T16:24:29.111Z,3.60
2023-04-13T16:27:02.959Z,3.30
2023-04-13T16:29:37.151Z,3.50
2023-04-13T16:32:11.939Z,3.40
2023-04-13T16:34:46.803Z,3.30
2023-04-13T16:37:20.466Z,3.80
2023-04-13T16:39:54.017Z,3.70
2023-04-13T16:42:27.830Z,4.00
2023-04-13T16:45:02.506Z,3.30
2023-04-13T16:47:38.577Z,3.90
2023-04-13T16:50:13.671Z,3.40
2023-04-13T16:52:47.292Z,4.30
2023-04-13T16:55:21.681Z,4.20
2023-04-13T16:57:59.397Z,4.10
2023-04-13T17:00:35.532Z,4.00
2023-04-13T17:03:11.078Z,5.10
2023-04-13T17:05:45.055Z,4.00
2023-04-13T17:08:18.398Z,3.90
2023-04-13T17:10:52.914Z,4.70
2023-04-13T17:13:27.029Z,4.30
2023-04-13T17:16:01.755Z,3.90
2023-04-13T17:18:35.642Z,4.30
2023-04-13T17:21:09.271Z,4.90
2023-04-13T17:23:44.270Z,4.40
2023-04-13T17:26:18.227Z,4.50
2023-04-13T17:28:52.040Z,5.30
2023-04-13T17:31:27.416Z,5.10
2023-04-13T17:34:03.405Z,5.10
2023-04-13T17:36:38.016Z,4.40
2023-04-13T17:39:15.300Z,4.10
2023-04-13T17:41:49.256Z,4.80
2023-04-13T17:44:22.770Z,4.80
2023-04-13T17:46:59.030Z,5.40
2023-04-13T17:49:34.497Z,5.10
2023-04-13T17:52:09.662Z,5.10
2023-04-13T17:54:44.833Z,6.10
2023-04-13T17:57:19.135Z,5.40
2023-04-13T17:59:54.269Z,5.70
2023-04-13T18:02:42.765Z,6.50
2023-04-13T18:05:18.611Z,6.50
2023-04-13T18:07:52.257Z,6.90
2023-04-13T18:10:26.243Z,7.90
2023-04-13T18:13:02.860Z,7.10
2023-04-13T18:15:38.161Z,6.80
2023-04-13T18:18:15.675Z,8.30
2023-04-13T18:20:51.317Z,7.10
2023-04-13T18:23:27.770Z,8.20
2023-04-13T18:26:07.022Z,7.60
2023-04-13T18:28:42.683Z,7.50
2023-04-13T18:31:17.896Z,7.80
2023-04-13T18:33:53.990Z,8.40
2023-04-13T18:36:35.858Z,8.10
2023-04-13T18:39:12.215Z,8.30
2023-04-13T18:41:46.921Z,8.20
2023-04-13T18:44:25.970Z,8.80
2023-04-13T18:47:03.105Z,10.30
2023-04-13T18:49:44.826Z,9.60
2023-04-13T18:52:27.142Z,10.00
2023-04-13T18:55:07.870Z,10.20
2023-04-13T18:57:44.296Z,10.70
2023-04-13T19:00:27.676Z,11.70
2023-04-13T19:03:03.891Z,12.70
2023-04-13T19:05:42.637Z,13.80
2023-04-13T19:08:18.795Z,16.90
2023-04-13T19:11:00.508Z,19.00
2023-04-13T19:13:35.805Z,19.90
2023-04-13T19:16:11.003Z,21.30
2023-04-13T19:18:48.769Z,20.70
2023-04-13T19:21:35.339Z,19.50
2023-04-13T19:24:14.032Z,18.50
2023-04-13T19:29:22.872Z,17.50
2023-04-13T19:31:58.250Z,16.60
2023-04-13T19:34:34.334Z,15.30
2023-04-13T19:37:10.478Z,15.80
2023-04-13T19:39:47.332Z,15.80
2023-04-13T19:42:26.719Z,14.60
2023-04-13T19:45:06.817Z,15.20
2023-04-13T19:47:43.105Z,15.00
2023-04-13T19:50:20.393Z,15.60
2023-04-13T19:52:56.784Z,15.80
2023-04-13T19:55:31.889Z,15.10
2023-04-13T19:58:06.796Z,15.50
2023-04-13T20:00:44.333Z,15.70
2023-04-13T20:03:21.454Z,16.20
2023-04-13T20:06:00.224Z,16.60
2023-04-13T20:11:06.804Z,15.90
2023-04-13T20:13:43.618Z,15.30
2023-04-13T20:16:18.770Z,15.10
2023-04-13T20:18:54.956Z,15.20
2023-04-13T20:21:38.567Z,15.30
2023-04-13T20:24:12.644Z,14.30
2023-04-13T20:26:47.461Z,15.30
2023-04-13T20:29:27.715Z,14.00
2023-04-13T20:32:01.918Z,12.80
2023-04-13T20:34:38.153Z,12.40
2023-04-13T20:37:14.838Z,13.30
2023-04-13T20:39:51.854Z,13.30
2023-04-13T20:42:27.460Z,12.70
2023-04-13T20:45:02.469Z,12.50
2023-04-13T20:47:36.962Z,12.00
2023-04-13T20:50:13.740Z,12.70
2023-04-13T20:52:47.586Z,11.30
2023-04-13T20:55:22.789Z,12.20
2023-04-13T20:57:57.029Z,11.00
2023-04-13T21:00:30.893Z,11.50
2023-04-13T21:03:05.137Z,11.20
2023-04-13T21:05:38.792Z,11.10
2023-04-13T21:08:12.685Z,11.00
2023-04-13T21:10:47.233Z,10.90
2023-04-13T21:13:21.434Z,10.70
2023-04-13T21:15:54.694Z,10.20
2023-04-13T21:18:28.053Z,10.00
2023-04-13T21:21:01.493Z,10.80
2023-04-13T21:23:37.138Z,10.70
2023-04-13T21:26:11.027Z,11.30
2023-04-13T21:28:44.576Z,12.10
2023-04-13T21:31:18.666Z,10.50
2023-04-13T21:33:52.068Z,10.50
2023-04-13T21:39:02.786Z,10.60
2023-04-13T21:41:36.758Z,10.00
2023-04-13T21:44:26.085Z,9.80
2023-04-13T21:47:02.379Z,10.00
2023-04-13T21:49:36.299Z,9.90
2023-04-13T21:52:09.679Z,10.50
2023-04-13T21:54:43.865Z,9.90
2023-04-13T21:57:17.582Z,9.30
2023-04-13T21:59:50.869Z,9.50
2023-04-13T22:02:25.057Z,9.80
2023-04-13T22:04:58.837Z,9.60
2023-04-13T22:07:42.172Z,10.30
2023-04-13T22:10:17.404Z,9.80
2023-04-13T22:12:51.332Z,9.70
2023-04-13T22:15:24.992Z,9.30
2023-04-13T22:17:58.882Z,9.80
2023-04-13T22:20:32.801Z,9.20
2023-04-13T22:23:06.481Z,9.50
2023-04-13T22:25:40.208Z,10.10
2023-04-13T22:28:13.911Z,9.20
2023-04-13T22:30:47.786Z,8.70
2023-04-13T22:33:21.479Z,8.80
2023-04-13T22:35:55.413Z,8.50
2023-04-13T22:38:28.763Z,8.90
2023-04-13T22:41:07.015Z,8.70
2023-04-13T22:43:40.814Z,8.40
2023-04-13T22:46:14.397Z,9.40
2023-04-13T22:48:48.519Z,9.40
2023-04-13T22:51:22.022Z,8.70
2023-04-13T22:53:55.712Z,8.60
2023-04-13T22:56:29.655Z,8.40
2023-04-13T22:59:03.642Z,8.60
2023-04-13T23:01:37.614Z,9.20
2023-04-13T23:04:14.152Z,9.10
2023-04-13T23:06:50.293Z,8.90
2023-04-13T23:09:24.400Z,8.80
2023-04-13T23:11:59.055Z,8.10
2023-04-13T23:14:32.663Z,7.90
2023-04-13T23:17:06.322Z,8.10
2023-04-13T23:19:39.614Z,8.00
2023-04-13T23:22:13.409Z,8.60
2023-04-13T23:24:47.298Z,8.60
2023-04-13T23:27:21.388Z,8.70
2023-04-13T23:29:54.898Z,8.10
2023-04-13T23:32:28.596Z,8.60
2023-04-13T23:35:02.428Z,9.50
2023-04-13T23:37:35.904Z,8.00
2023-04-13T23:40:11.212Z,8.60
2023-04-13T23:42:44.980Z,9.30
2023-04-13T23:45:18.856Z,9.00
2023-04-13T23:47:52.768Z,7.90
2023-04-13T23:50:26.732Z,7.10
2023-04-13T23:53:00.455Z,8.00
2023-04-13T23:55:34.117Z,8.20
2023-04-13T23:58:08.559Z,7.50
